Terminal Aerodrome Forecast
Issued by NWS

Home | Current Version | Previous Version | Text Only | Print | Product List | Glossary On
Versions: 1 2 3 4 5 6 7 8 9 10 11 12 13 14 15 16 17 18 19 20 21 22 23 24 25
000
FTUS43 KGRR 302014 AAB
TAFMKG
TAF AMD
KMKG 302014Z 3020/0118 28010KT 5SM HZ BKN009 BKN013 OVC029
     FM302100 32010KT P6SM OVC025
     FM010000 33011KT P6SM SCT250
     FM010600 34007KT P6SM OVC015
     FM010900 33006KT P6SM OVC004
     FM011500 31007KT P6SM OVC015=

USA.gov is the U.S. government's official web portal to all federal, state and local government web resources and services.